sensor_id;sensor_type;location;lat;lon;timestamp;P1;durP1;ratioP1;P2;durP2;ratioP2
37847;SDS011;23688;33.130;-117.188;2022-09-09T00:03:53;11.82;;;4.43;;
37847;SDS011;23688;33.130;-117.188;2022-09-09T00:09:46;11.80;;;3.83;;
37847;SDS011;23688;33.130;-117.188;2022-09-09T00:12:32;14.13;;;3.97;;
37847;SDS011;23688;33.130;-117.188;2022-09-09T00:15:27;13.45;;;3.72;;
37847;SDS011;23688;33.130;-117.188;2022-09-09T00:18:22;8.68;;;3.45;;
37847;SDS011;23688;33.130;-117.188;2022-09-09T00:20:58;8.48;;;3.92;;
37847;SDS011;23688;33.130;-117.188;2022-09-09T00:23:39;13.57;;;3.90;;
37847;SDS011;23688;33.130;-117.188;2022-09-09T00:26:25;11.73;;;3.80;;
37847;SDS011;23688;33.130;-117.188;2022-09-09T00:31:48;17.25;;;4.35;;
37847;SDS011;23688;33.130;-117.188;2022-09-09T00:34:21;9.63;;;3.72;;
37847;SDS011;23688;33.130;-117.188;2022-09-09T00:36:52;11.70;;;4.88;;
37847;SDS011;23688;33.130;-117.188;2022-09-09T00:44:34;14.48;;;4.15;;
37847;SDS011;23688;33.130;-117.188;2022-09-09T00:52:45;13.67;;;5.63;;
37847;SDS011;23688;33.130;-117.188;2022-09-09T00:57:53;17.63;;;5.47;;
37847;SDS011;23688;33.130;-117.188;2022-09-09T01:00:25;16.13;;;4.75;;
37847;SDS011;23688;33.130;-117.188;2022-09-09T01:05:27;19.40;;;5.68;;
37847;SDS011;23688;33.130;-117.188;2022-09-09T01:07:55;12.05;;;4.32;;
37847;SDS011;23688;33.130;-117.188;2022-09-09T01:13:13;12.90;;;4.63;;
37847;SDS011;23688;33.130;-117.188;2022-09-09T01:15:52;14.35;;;5.15;;
37847;SDS011;23688;33.130;-117.188;2022-09-09T01:18:20;16.67;;;5.00;;
37847;SDS011;23688;33.130;-117.188;2022-09-09T01:26:58;12.55;;;4.10;;
37847;SDS011;23688;33.130;-117.188;2022-09-09T01:29:27;11.35;;;4.88;;
37847;SDS011;23688;33.130;-117.188;2022-09-09T01:34:23;15.57;;;4.00;;
37847;SDS011;23688;33.130;-117.188;2022-09-09T01:37:25;15.18;;;4.88;;
37847;SDS011;23688;33.130;-117.188;2022-09-09T01:39:45;17.13;;;4.70;;
37847;SDS011;23688;33.130;-117.188;2022-09-09T01:42:12;11.73;;;4.50;;
37847;SDS011;23688;33.130;-117.188;2022-09-09T01:44:41;12.63;;;5.05;;
37847;SDS011;23688;33.130;-117.188;2022-09-09T01:47:08;13.55;;;4.30;;
37847;SDS011;23688;33.130;-117.188;2022-09-09T01:49:35;18.47;;;4.83;;
37847;SDS011;23688;33.130;-117.188;2022-09-09T01:52:01;10.77;;;3.90;;
37847;SDS011;23688;33.130;-117.188;2022-09-09T01:54:29;12.38;;;4.35;;
37847;SDS011;23688;33.130;-117.188;2022-09-09T01:57:17;13.80;;;4.28;;
37847;SDS011;23688;33.130;-117.188;2022-09-09T02:02:40;20.10;;;6.72;;
37847;SDS011;23688;33.130;-117.188;2022-09-09T02:05:39;18.77;;;8.43;;
37847;SDS011;23688;33.130;-117.188;2022-09-09T02:08:10;10.45;;;5.25;;
37847;SDS011;23688;33.130;-117.188;2022-09-09T02:13:51;14.57;;;4.20;;
37847;SDS011;23688;33.130;-117.188;2022-09-09T02:16:37;12.50;;;4.72;;
37847;SDS011;23688;33.130;-117.188;2022-09-09T02:21:52;11.40;;;3.95;;
37847;SDS011;23688;33.130;-117.188;2022-09-09T02:24:25;9.55;;;4.47;;
37847;SDS011;23688;33.130;-117.188;2022-09-09T02:26:58;15.52;;;4.47;;
37847;SDS011;23688;33.130;-117.188;2022-09-09T02:29:30;16.67;;;4.22;;
37847;SDS011;23688;33.130;-117.188;2022-09-09T02:32:01;12.75;;;4.47;;
37847;SDS011;23688;33.130;-117.188;2022-09-09T02:34:31;9.02;;;4.15;;
37847;SDS011;23688;33.130;-117.188;2022-09-09T02:37:06;11.30;;;4.07;;
37847;SDS011;23688;33.130;-117.188;2022-09-09T02:39:34;13.15;;;4.00;;
37847;SDS011;23688;33.130;-117.188;2022-09-09T02:42:01;12.48;;;4.72;;
37847;SDS011;23688;33.130;-117.188;2022-09-09T02:44:29;12.65;;;3.78;;
37847;SDS011;23688;33.130;-117.188;2022-09-09T02:47:00;14.10;;;4.78;;
37847;SDS011;23688;33.130;-117.188;2022-09-09T02:50:19;13.20;;;4.00;;
37847;SDS011;23688;33.130;-117.188;2022-09-09T02:53:07;9.95;;;3.97;;
37847;SDS011;23688;33.130;-117.188;2022-09-09T02:55:39;14.82;;;4.65;;
37847;SDS011;23688;33.130;-117.188;2022-09-09T02:58:10;14.65;;;4.05;;
37847;SDS011;23688;33.130;-117.188;2022-09-09T03:00:42;17.33;;;4.40;;
37847;SDS011;23688;33.130;-117.188;2022-09-09T03:03:13;11.02;;;4.00;;
37847;SDS011;23688;33.130;-117.188;2022-09-09T03:08:07;16.27;;;4.47;;
37847;SDS011;23688;33.130;-117.188;2022-09-09T03:10:35;9.88;;;3.72;;
37847;SDS011;23688;33.130;-117.188;2022-09-09T03:13:02;15.98;;;4.63;;
37847;SDS011;23688;33.130;-117.188;2022-09-09T03:15:31;13.63;;;3.95;;
37847;SDS011;23688;33.130;-117.188;2022-09-09T03:17:58;10.88;;;4.40;;
37847;SDS011;23688;33.130;-117.188;2022-09-09T03:20:25;11.77;;;4.30;;
37847;SDS011;23688;33.130;-117.188;2022-09-09T03:22:54;13.82;;;4.38;;
37847;SDS011;23688;33.130;-117.188;2022-09-09T03:25:23;13.40;;;4.13;;
37847;SDS011;23688;33.130;-117.188;2022-09-09T03:27:51;16.30;;;4.85;;
37847;SDS011;23688;33.130;-117.188;2022-09-09T03:30:20;12.73;;;4.25;;
37847;SDS011;23688;33.130;-117.188;2022-09-09T03:32:48;11.10;;;4.00;;
37847;SDS011;23688;33.130;-117.188;2022-09-09T03:35:15;18.25;;;4.60;;
37847;SDS011;23688;33.130;-117.188;2022-09-09T03:37:43;9.57;;;3.95;;
37847;SDS011;23688;33.130;-117.188;2022-09-09T03:40:11;15.55;;;5.25;;
37847;SDS011;23688;33.130;-117.188;2022-09-09T03:42:40;15.80;;;3.85;;
37847;SDS011;23688;33.130;-117.188;2022-09-09T03:45:07;10.15;;;3.97;;
37847;SDS011;23688;33.130;-117.188;2022-09-09T03:47:36;15.32;;;5.05;;
37847;SDS011;23688;33.130;-117.188;2022-09-09T03:50:09;10.90;;;4.25;;
37847;SDS011;23688;33.130;-117.188;2022-09-09T03:52:38;13.95;;;3.97;;
37847;SDS011;23688;33.130;-117.188;2022-09-09T03:55:07;9.68;;;3.90;;
37847;SDS011;23688;33.130;-117.188;2022-09-09T03:57:34;17.65;;;4.90;;
37847;SDS011;23688;33.130;-117.188;2022-09-09T04:00:06;12.55;;;4.47;;
37847;SDS011;23688;33.130;-117.188;2022-09-09T04:02:38;14.23;;;4.45;;
37847;SDS011;23688;33.130;-117.188;2022-09-09T04:05:05;15.70;;;3.95;;
37847;SDS011;23688;33.130;-117.188;2022-09-09T04:07:32;11.40;;;4.05;;
37847;SDS011;23688;33.130;-117.188;2022-09-09T04:10:00;17.95;;;4.60;;
37847;SDS011;23688;33.130;-117.188;2022-09-09T04:12:27;15.38;;;4.28;;
37847;SDS011;23688;33.130;-117.188;2022-09-09T04:14:55;14.90;;;4.50;;
37847;SDS011;23688;33.130;-117.188;2022-09-09T04:17:22;14.45;;;4.68;;
37847;SDS011;23688;33.130;-117.188;2022-09-09T04:19:51;9.90;;;4.28;;
37847;SDS011;23688;33.130;-117.188;2022-09-09T04:22:17;11.32;;;3.90;;
37847;SDS011;23688;33.130;-117.188;2022-09-09T04:24:44;10.73;;;5.00;;
37847;SDS011;23688;33.130;-117.188;2022-09-09T04:27:10;14.82;;;4.93;;
37847;SDS011;23688;33.130;-117.188;2022-09-09T04:29:39;11.75;;;4.47;;
37847;SDS011;23688;33.130;-117.188;2022-09-09T04:32:05;11.70;;;4.60;;
37847;SDS011;23688;33.130;-117.188;2022-09-09T04:34:32;21.92;;;5.03;;
37847;SDS011;23688;33.130;-117.188;2022-09-09T04:37:01;13.38;;;4.03;;
37847;SDS011;23688;33.130;-117.188;2022-09-09T04:39:27;16.45;;;5.65;;
37847;SDS011;23688;33.130;-117.188;2022-09-09T04:41:55;12.73;;;4.10;;
37847;SDS011;23688;33.130;-117.188;2022-09-09T04:44:23;12.93;;;4.57;;
37847;SDS011;23688;33.130;-117.188;2022-09-09T04:46:51;11.95;;;4.22;;
37847;SDS011;23688;33.130;-117.188;2022-09-09T04:49:24;16.35;;;5.22;;
37847;SDS011;23688;33.130;-117.188;2022-09-09T04:54:18;15.45;;;4.40;;
37847;SDS011;23688;33.130;-117.188;2022-09-09T04:56:47;15.88;;;4.38;;
37847;SDS011;23688;33.130;-117.188;2022-09-09T04:59:16;18.17;;;5.03;;
37847;SDS011;23688;33.130;-117.188;2022-09-09T05:01:47;17.27;;;4.93;;
37847;SDS011;23688;33.130;-117.188;2022-09-09T05:04:17;9.85;;;4.10;;
37847;SDS011;23688;33.130;-117.188;2022-09-09T05:06:44;13.18;;;4.72;;
37847;SDS011;23688;33.130;-117.188;2022-09-09T05:09:11;18.35;;;5.13;;
37847;SDS011;23688;33.130;-117.188;2022-09-09T05:11:42;17.40;;;4.88;;
37847;SDS011;23688;33.130;-117.188;2022-09-09T05:14:10;16.88;;;4.70;;
37847;SDS011;23688;33.130;-117.188;2022-09-09T05:16:46;18.67;;;5.50;;
37847;SDS011;23688;33.130;-117.188;2022-09-09T05:19:21;17.02;;;5.28;;
37847;SDS011;23688;33.130;-117.188;2022-09-09T05:21:50;18.42;;;5.03;;
37847;SDS011;23688;33.130;-117.188;2022-09-09T05:24:18;15.55;;;5.15;;
37847;SDS011;23688;33.130;-117.188;2022-09-09T05:26:48;21.07;;;6.17;;
37847;SDS011;23688;33.130;-117.188;2022-09-09T05:29:37;22.40;;;5.68;;
37847;SDS011;23688;33.130;-117.188;2022-09-09T05:32:04;19.73;;;5.00;;
37847;SDS011;23688;33.130;-117.188;2022-09-09T05:34:31;12.43;;;4.88;;
37847;SDS011;23688;33.130;-117.188;2022-09-09T05:36:59;13.80;;;4.50;;
37847;SDS011;23688;33.130;-117.188;2022-09-09T05:39:28;9.98;;;4.63;;
37847;SDS011;23688;33.130;-117.188;2022-09-09T05:41:58;13.15;;;5.28;;
37847;SDS011;23688;33.130;-117.188;2022-09-09T05:44:32;19.48;;;5.07;;
37847;SDS011;23688;33.130;-117.188;2022-09-09T05:46:59;24.23;;;5.72;;
37847;SDS011;23688;33.130;-117.188;2022-09-09T05:49:28;17.80;;;5.15;;
37847;SDS011;23688;33.130;-117.188;2022-09-09T05:52:00;14.32;;;4.95;;
37847;SDS011;23688;33.130;-117.188;2022-09-09T05:57:00;16.35;;;5.38;;
37847;SDS011;23688;33.130;-117.188;2022-09-09T05:59:26;14.77;;;5.00;;
37847;SDS011;23688;33.130;-117.188;2022-09-09T06:01:58;15.55;;;5.30;;
37847;SDS011;23688;33.130;-117.188;2022-09-09T06:04:25;14.98;;;5.05;;
37847;SDS011;23688;33.130;-117.188;2022-09-09T06:06:51;15.52;;;4.93;;
37847;SDS011;23688;33.130;-117.188;2022-09-09T06:09:44;14.90;;;5.57;;
37847;SDS011;23688;33.130;-117.188;2022-09-09T06:12:13;12.88;;;4.63;;
37847;SDS011;23688;33.130;-117.188;2022-09-09T06:14:40;18.48;;;5.70;;
37847;SDS011;23688;33.130;-117.188;2022-09-09T06:17:07;13.93;;;4.40;;
37847;SDS011;23688;33.130;-117.188;2022-09-09T06:19:35;10.85;;;5.13;;
37847;SDS011;23688;33.130;-117.188;2022-09-09T06:22:04;18.67;;;5.20;;
37847;SDS011;23688;33.130;-117.188;2022-09-09T06:24:33;12.82;;;4.72;;
37847;SDS011;23688;33.130;-117.188;2022-09-09T06:27:04;12.10;;;5.03;;
37847;SDS011;23688;33.130;-117.188;2022-09-09T06:29:38;19.45;;;5.72;;
37847;SDS011;23688;33.130;-117.188;2022-09-09T06:32:11;15.35;;;5.45;;
37847;SDS011;23688;33.130;-117.188;2022-09-09T06:34:44;9.68;;;4.68;;
37847;SDS011;23688;33.130;-117.188;2022-09-09T06:37:14;14.38;;;5.20;;
37847;SDS011;23688;33.130;-117.188;2022-09-09T06:40:00;15.27;;;4.55;;
37847;SDS011;23688;33.130;-117.188;2022-09-09T06:42:27;12.48;;;5.70;;
37847;SDS011;23688;33.130;-117.188;2022-09-09T06:44:58;18.25;;;5.38;;
37847;SDS011;23688;33.130;-117.188;2022-09-09T06:47:25;14.45;;;5.15;;
37847;SDS011;23688;33.130;-117.188;2022-09-09T06:49:53;11.30;;;4.20;;
37847;SDS011;23688;33.130;-117.188;2022-09-09T06:52:20;14.63;;;5.18;;
37847;SDS011;23688;33.130;-117.188;2022-09-09T06:54:48;18.23;;;5.22;;
37847;SDS011;23688;33.130;-117.188;2022-09-09T06:57:18;18.77;;;5.15;;
37847;SDS011;23688;33.130;-117.188;2022-09-09T06:59:49;12.27;;;5.18;;
37847;SDS011;23688;33.130;-117.188;2022-09-09T07:02:17;23.38;;;5.18;;
37847;SDS011;23688;33.130;-117.188;2022-09-09T07:04:45;15.35;;;4.93;;
37847;SDS011;23688;33.130;-117.188;2022-09-09T07:07:13;14.82;;;4.55;;
37847;SDS011;23688;33.130;-117.188;2022-09-09T07:10:03;11.20;;;4.00;;
37847;SDS011;23688;33.130;-117.188;2022-09-09T07:12:55;17.20;;;4.47;;
37847;SDS011;23688;33.130;-117.188;2022-09-09T07:15:27;12.98;;;5.20;;
37847;SDS011;23688;33.130;-117.188;2022-09-09T07:20:56;9.50;;;4.43;;
37847;SDS011;23688;33.130;-117.188;2022-09-09T07:23:23;11.05;;;4.50;;
37847;SDS011;23688;33.130;-117.188;2022-09-09T07:28:47;10.65;;;4.55;;
37847;SDS011;23688;33.130;-117.188;2022-09-09T07:31:44;13.23;;;4.53;;
37847;SDS011;23688;33.130;-117.188;2022-09-09T07:34:41;11.63;;;3.78;;
37847;SDS011;23688;33.130;-117.188;2022-09-09T07:37:25;9.20;;;5.10;;
37847;SDS011;23688;33.130;-117.188;2022-09-09T07:39:51;16.10;;;4.45;;
37847;SDS011;23688;33.130;-117.188;2022-09-09T07:42:17;12.07;;;4.30;;
37847;SDS011;23688;33.130;-117.188;2022-09-09T07:44:44;18.52;;;5.32;;
37847;SDS011;23688;33.130;-117.188;2022-09-09T07:47:11;17.35;;;5.15;;
37847;SDS011;23688;33.130;-117.188;2022-09-09T07:49:38;11.00;;;5.50;;
37847;SDS011;23688;33.130;-117.188;2022-09-09T07:52:06;13.07;;;5.32;;
37847;SDS011;23688;33.130;-117.188;2022-09-09T07:54:33;14.05;;;4.20;;
37847;SDS011;23688;33.130;-117.188;2022-09-09T07:57:00;15.73;;;4.95;;
37847;SDS011;23688;33.130;-117.188;2022-09-09T07:59:29;13.32;;;4.97;;
37847;SDS011;23688;33.130;-117.188;2022-09-09T08:01:55;15.75;;;4.93;;
37847;SDS011;23688;33.130;-117.188;2022-09-09T08:04:22;16.05;;;4.80;;
37847;SDS011;23688;33.130;-117.188;2022-09-09T08:09:18;15.07;;;4.05;;
37847;SDS011;23688;33.130;-117.188;2022-09-09T08:11:45;11.27;;;3.55;;
37847;SDS011;23688;33.130;-117.188;2022-09-09T08:14:12;7.20;;;3.75;;
37847;SDS011;23688;33.130;-117.188;2022-09-09T08:16:43;13.15;;;4.47;;
37847;SDS011;23688;33.130;-117.188;2022-09-09T08:19:13;16.13;;;4.68;;
37847;SDS011;23688;33.130;-117.188;2022-09-09T08:21:59;9.95;;;3.88;;
37847;SDS011;23688;33.130;-117.188;2022-09-09T08:24:28;10.10;;;3.63;;
37847;SDS011;23688;33.130;-117.188;2022-09-09T08:26:55;8.90;;;3.58;;
37847;SDS011;23688;33.130;-117.188;2022-09-09T08:29:22;10.05;;;4.25;;
37847;SDS011;23688;33.130;-117.188;2022-09-09T08:31:50;17.92;;;4.65;;
37847;SDS011;23688;33.130;-117.188;2022-09-09T08:34:19;8.70;;;3.63;;
37847;SDS011;23688;33.130;-117.188;2022-09-09T08:36:47;13.00;;;3.83;;
37847;SDS011;23688;33.130;-117.188;2022-09-09T08:39:15;15.23;;;3.80;;
37847;SDS011;23688;33.130;-117.188;2022-09-09T08:52:31;12.20;;;3.38;;
37847;SDS011;23688;33.130;-117.188;2022-09-09T08:57:57;16.92;;;3.42;;
37847;SDS011;23688;33.130;-117.188;2022-09-09T09:00:33;10.48;;;2.90;;
37847;SDS011;23688;33.130;-117.188;2022-09-09T09:06:04;9.27;;;2.90;;
37847;SDS011;23688;33.130;-117.188;2022-09-09T09:11:50;6.90;;;2.58;;
37847;SDS011;23688;33.130;-117.188;2022-09-09T09:14:26;12.55;;;3.50;;
37847;SDS011;23688;33.130;-117.188;2022-09-09T09:17:29;11.65;;;3.20;;
37847;SDS011;23688;33.130;-117.188;2022-09-09T09:19:50;10.05;;;3.55;;
37847;SDS011;23688;33.130;-117.188;2022-09-09T09:27:57;14.05;;;3.83;;
37847;SDS011;23688;33.130;-117.188;2022-09-09T09:38:50;12.55;;;3.42;;
37847;SDS011;23688;33.130;-117.188;2022-09-09T09:41:35;9.02;;;2.58;;
37847;SDS011;23688;33.130;-117.188;2022-09-09T09:44:05;16.63;;;3.65;;
37847;SDS011;23688;33.130;-117.188;2022-09-09T09:46:47;10.68;;;2.78;;
37847;SDS011;23688;33.130;-117.188;2022-09-09T09:49:13;13.45;;;3.22;;
37847;SDS011;23688;33.130;-117.188;2022-09-09T09:51:39;10.18;;;2.42;;
37847;SDS011;23688;33.130;-117.188;2022-09-09T09:54:08;11.00;;;2.78;;
37847;SDS011;23688;33.130;-117.188;2022-09-09T09:56:35;12.40;;;2.55;;
37847;SDS011;23688;33.130;-117.188;2022-09-09T09:59:01;8.38;;;2.45;;
37847;SDS011;23688;33.130;-117.188;2022-09-09T10:01:32;10.00;;;2.10;;
37847;SDS011;23688;33.130;-117.188;2022-09-09T10:06:46;8.55;;;2.20;;
37847;SDS011;23688;33.130;-117.188;2022-09-09T10:09:25;18.27;;;2.83;;
37847;SDS011;23688;33.130;-117.188;2022-09-09T10:12:14;10.85;;;2.00;;
37847;SDS011;23688;33.130;-117.188;2022-09-09T10:21:14;8.77;;;2.50;;
37847;SDS011;23688;33.130;-117.188;2022-09-09T10:26:42;15.30;;;2.65;;
37847;SDS011;23688;33.130;-117.188;2022-09-09T10:29:32;12.45;;;2.45;;
37847;SDS011;23688;33.130;-117.188;2022-09-09T10:34:39;10.07;;;2.30;;
37847;SDS011;23688;33.130;-117.188;2022-09-09T10:37:22;8.43;;;1.95;;
37847;SDS011;23688;33.130;-117.188;2022-09-09T10:56:40;28.33;;;3.28;;
37847;SDS011;23688;33.130;-117.188;2022-09-09T10:59:16;33.33;;;2.70;;
37847;SDS011;23688;33.130;-117.188;2022-09-09T11:01:49;40.25;;;3.22;;
37847;SDS011;23688;33.130;-117.188;2022-09-09T11:07:32;12.30;;;1.50;;
37847;SDS011;23688;33.130;-117.188;2022-09-09T11:13:03;6.32;;;1.88;;
37847;SDS011;23688;33.130;-117.188;2022-09-09T11:15:41;14.48;;;1.55;;
37847;SDS011;23688;33.130;-117.188;2022-09-09T11:18:16;12.03;;;1.13;;
37847;SDS011;23688;33.130;-117.188;2022-09-09T11:20:49;17.10;;;1.98;;
37847;SDS011;23688;33.130;-117.188;2022-09-09T11:23:22;18.48;;;2.17;;
37847;SDS011;23688;33.130;-117.188;2022-09-09T11:25:58;5.63;;;1.75;;
37847;SDS011;23688;33.130;-117.188;2022-09-09T11:34:02;21.30;;;1.85;;
37847;SDS011;23688;33.130;-117.188;2022-09-09T11:36:56;22.23;;;2.10;;
37847;SDS011;23688;33.130;-117.188;2022-09-09T11:42:38;21.52;;;1.73;;
37847;SDS011;23688;33.130;-117.188;2022-09-09T11:45:11;21.42;;;2.30;;
37847;SDS011;23688;33.130;-117.188;2022-09-09T11:47:55;33.63;;;3.85;;
37847;SDS011;23688;33.130;-117.188;2022-09-09T11:52:49;35.20;;;3.28;;
37847;SDS011;23688;33.130;-117.188;2022-09-09T12:00:41;23.65;;;1.88;;
37847;SDS011;23688;33.130;-117.188;2022-09-09T12:06:08;14.27;;;1.75;;
37847;SDS011;23688;33.130;-117.188;2022-09-09T12:08:42;14.77;;;2.40;;
37847;SDS011;23688;33.130;-117.188;2022-09-09T12:11:10;13.60;;;1.52;;
37847;SDS011;23688;33.130;-117.188;2022-09-09T12:13:37;9.35;;;1.23;;
37847;SDS011;23688;33.130;-117.188;2022-09-09T12:16:03;15.00;;;1.13;;
37847;SDS011;23688;33.130;-117.188;2022-09-09T12:18:37;12.07;;;0.95;;
37847;SDS011;23688;33.130;-117.188;2022-09-09T12:23:52;24.52;;;2.10;;
37847;SDS011;23688;33.130;-117.188;2022-09-09T12:29:12;23.08;;;1.40;;
37847;SDS011;23688;33.130;-117.188;2022-09-09T12:32:09;18.15;;;1.50;;
37847;SDS011;23688;33.130;-117.188;2022-09-09T12:34:43;17.35;;;2.30;;
37847;SDS011;23688;33.130;-117.188;2022-09-09T12:40:03;10.45;;;1.30;;
37847;SDS011;23688;33.130;-117.188;2022-09-09T12:42:32;17.45;;;2.13;;
37847;SDS011;23688;33.130;-117.188;2022-09-09T12:44:59;10.43;;;1.38;;
37847;SDS011;23688;33.130;-117.188;2022-09-09T12:47:38;3.60;;;0.50;;
37847;SDS011;23688;33.130;-117.188;2022-09-09T12:52:54;10.10;;;1.65;;
37847;SDS011;23688;33.130;-117.188;2022-09-09T12:55:35;20.85;;;3.53;;
37847;SDS011;23688;33.130;-117.188;2022-09-09T12:58:03;19.95;;;1.58;;
37847;SDS011;23688;33.130;-117.188;2022-09-09T13:00:33;12.73;;;1.23;;
37847;SDS011;23688;33.130;-117.188;2022-09-09T13:05:44;9.27;;;1.00;;
37847;SDS011;23688;33.130;-117.188;2022-09-09T13:08:12;4.00;;;1.23;;
37847;SDS011;23688;33.130;-117.188;2022-09-09T13:10:47;17.75;;;1.25;;
37847;SDS011;23688;33.130;-117.188;2022-09-09T13:13:23;5.70;;;0.70;;
37847;SDS011;23688;33.130;-117.188;2022-09-09T13:15:56;7.35;;;0.70;;
37847;SDS011;23688;33.130;-117.188;2022-09-09T13:18:31;8.18;;;1.10;;
37847;SDS011;23688;33.130;-117.188;2022-09-09T13:21:01;11.95;;;1.33;;
37847;SDS011;23688;33.130;-117.188;2022-09-09T13:23:29;1.08;;;0.70;;
37847;SDS011;23688;33.130;-117.188;2022-09-09T13:25:58;8.35;;;0.82;;
37847;SDS011;23688;33.130;-117.188;2022-09-09T13:28:27;17.90;;;1.55;;
37847;SDS011;23688;33.130;-117.188;2022-09-09T13:30:59;6.70;;;0.63;;
37847;SDS011;23688;33.130;-117.188;2022-09-09T13:33:38;3.35;;;0.77;;
37847;SDS011;23688;33.130;-117.188;2022-09-09T13:36:06;1.40;;;0.68;;
37847;SDS011;23688;33.130;-117.188;2022-09-09T13:38:40;3.88;;;0.65;;
37847;SDS011;23688;33.130;-117.188;2022-09-09T13:41:23;4.72;;;0.70;;
37847;SDS011;23688;33.130;-117.188;2022-09-09T13:43:51;3.83;;;0.93;;
37847;SDS011;23688;33.130;-117.188;2022-09-09T13:46:36;3.60;;;0.70;;
37847;SDS011;23688;33.130;-117.188;2022-09-09T13:54:04;5.45;;;0.60;;
37847;SDS011;23688;33.130;-117.188;2022-09-09T13:59:05;5.45;;;0.73;;
37847;SDS011;23688;33.130;-117.188;2022-09-09T14:01:36;5.28;;;0.70;;
37847;SDS011;23688;33.130;-117.188;2022-09-09T14:04:03;8.75;;;0.95;;
37847;SDS011;23688;33.130;-117.188;2022-09-09T14:06:31;9.68;;;1.17;;
37847;SDS011;23688;33.130;-117.188;2022-09-09T14:09:00;5.45;;;0.93;;
37847;SDS011;23688;33.130;-117.188;2022-09-09T14:11:26;18.00;;;1.25;;
37847;SDS011;23688;33.130;-117.188;2022-09-09T14:13:52;2.92;;;0.80;;
37847;SDS011;23688;33.130;-117.188;2022-09-09T14:16:19;5.00;;;0.93;;
37847;SDS011;23688;33.130;-117.188;2022-09-09T14:18:47;6.40;;;1.02;;
37847;SDS011;23688;33.130;-117.188;2022-09-09T14:21:13;6.65;;;1.00;;
37847;SDS011;23688;33.130;-117.188;2022-09-09T14:23:41;7.63;;;1.02;;
37847;SDS011;23688;33.130;-117.188;2022-09-09T14:26:07;8.93;;;1.27;;
37847;SDS011;23688;33.130;-117.188;2022-09-09T14:28:34;13.75;;;1.20;;
37847;SDS011;23688;33.130;-117.188;2022-09-09T14:31:02;8.18;;;0.93;;
37847;SDS011;23688;33.130;-117.188;2022-09-09T14:33:30;10.40;;;0.80;;
37847;SDS011;23688;33.130;-117.188;2022-09-09T14:35:57;11.45;;;0.88;;
37847;SDS011;23688;33.130;-117.188;2022-09-09T14:38:33;5.93;;;0.57;;
37847;SDS011;23688;33.130;-117.188;2022-09-09T14:41:11;9.38;;;1.40;;
37847;SDS011;23688;33.130;-117.188;2022-09-09T14:43:42;5.15;;;0.65;;
37847;SDS011;23688;33.130;-117.188;2022-09-09T14:46:09;7.50;;;1.17;;
37847;SDS011;23688;33.130;-117.188;2022-09-09T14:48:38;7.68;;;1.05;;
37847;SDS011;23688;33.130;-117.188;2022-09-09T14:51:12;7.47;;;0.75;;
37847;SDS011;23688;33.130;-117.188;2022-09-09T14:53:41;9.38;;;0.95;;
37847;SDS011;23688;33.130;-117.188;2022-09-09T14:56:12;9.80;;;1.33;;
37847;SDS011;23688;33.130;-117.188;2022-09-09T14:58:40;10.65;;;1.75;;
37847;SDS011;23688;33.130;-117.188;2022-09-09T15:01:11;6.47;;;0.90;;
37847;SDS011;23688;33.130;-117.188;2022-09-09T15:03:39;9.15;;;0.60;;
37847;SDS011;23688;33.130;-117.188;2022-09-09T15:06:07;13.70;;;0.98;;
37847;SDS011;23688;33.130;-117.188;2022-09-09T15:08:36;6.82;;;0.90;;
37847;SDS011;23688;33.130;-117.188;2022-09-09T15:11:04;16.13;;;1.40;;
37847;SDS011;23688;33.130;-117.188;2022-09-09T15:13:33;4.35;;;1.10;;
37847;SDS011;23688;33.130;-117.188;2022-09-09T15:16:10;4.90;;;0.70;;
37847;SDS011;23688;33.130;-117.188;2022-09-09T15:18:44;10.63;;;0.80;;
37847;SDS011;23688;33.130;-117.188;2022-09-09T15:21:12;8.50;;;1.10;;
37847;SDS011;23688;33.130;-117.188;2022-09-09T15:23:41;10.45;;;1.27;;
37847;SDS011;23688;33.130;-117.188;2022-09-09T15:26:07;11.32;;;1.10;;
37847;SDS011;23688;33.130;-117.188;2022-09-09T15:28:34;8.70;;;0.90;;
37847;SDS011;23688;33.130;-117.188;2022-09-09T15:31:07;10.48;;;0.90;;
37847;SDS011;23688;33.130;-117.188;2022-09-09T15:33:36;8.07;;;0.63;;
37847;SDS011;23688;33.130;-117.188;2022-09-09T15:36:21;3.30;;;0.60;;
37847;SDS011;23688;33.130;-117.188;2022-09-09T15:38:49;6.70;;;0.80;;
37847;SDS011;23688;33.130;-117.188;2022-09-09T15:41:17;7.38;;;0.82;;
37847;SDS011;23688;33.130;-117.188;2022-09-09T15:43:47;7.30;;;1.33;;
37847;SDS011;23688;33.130;-117.188;2022-09-09T15:51:34;4.55;;;0.70;;
37847;SDS011;23688;33.130;-117.188;2022-09-09T15:54:02;5.78;;;1.00;;
37847;SDS011;23688;33.130;-117.188;2022-09-09T15:56:30;4.30;;;1.00;;
37847;SDS011;23688;33.130;-117.188;2022-09-09T15:58:58;10.98;;;1.08;;
37847;SDS011;23688;33.130;-117.188;2022-09-09T16:01:26;8.60;;;1.55;;
37847;SDS011;23688;33.130;-117.188;2022-09-09T16:03:52;12.90;;;1.20;;
37847;SDS011;23688;33.130;-117.188;2022-09-09T16:06:22;9.90;;;1.52;;
37847;SDS011;23688;33.130;-117.188;2022-09-09T16:08:51;9.23;;;1.08;;
37847;SDS011;23688;33.130;-117.188;2022-09-09T16:11:20;8.07;;;1.25;;
37847;SDS011;23688;33.130;-117.188;2022-09-09T16:14:01;9.90;;;1.13;;
37847;SDS011;23688;33.130;-117.188;2022-09-09T16:16:29;12.35;;;1.33;;
37847;SDS011;23688;33.130;-117.188;2022-09-09T16:18:57;9.80;;;1.50;;
37847;SDS011;23688;33.130;-117.188;2022-09-09T16:21:28;10.30;;;1.17;;
37847;SDS011;23688;33.130;-117.188;2022-09-09T16:23:57;11.32;;;1.38;;
37847;SDS011;23688;33.130;-117.188;2022-09-09T16:26:25;10.38;;;1.10;;
37847;SDS011;23688;33.130;-117.188;2022-09-09T16:28:53;7.72;;;1.20;;
37847;SDS011;23688;33.130;-117.188;2022-09-09T16:31:24;11.40;;;1.75;;
37847;SDS011;23688;33.130;-117.188;2022-09-09T16:33:51;12.52;;;1.23;;
37847;SDS011;23688;33.130;-117.188;2022-09-09T16:36:19;7.85;;;1.40;;
37847;SDS011;23688;33.130;-117.188;2022-09-09T16:38:56;9.32;;;1.35;;
37847;SDS011;23688;33.130;-117.188;2022-09-09T16:41:25;4.07;;;1.08;;
37847;SDS011;23688;33.130;-117.188;2022-09-09T16:43:53;3.72;;;1.27;;
37847;SDS011;23688;33.130;-117.188;2022-09-09T16:46:21;4.90;;;1.13;;
37847;SDS011;23688;33.130;-117.188;2022-09-09T16:48:49;5.82;;;1.05;;
37847;SDS011;23688;33.130;-117.188;2022-09-09T16:51:20;7.32;;;1.20;;
37847;SDS011;23688;33.130;-117.188;2022-09-09T16:53:51;6.65;;;0.90;;
37847;SDS011;23688;33.130;-117.188;2022-09-09T16:56:23;6.72;;;1.10;;
37847;SDS011;23688;33.130;-117.188;2022-09-09T16:58:52;5.95;;;1.00;;
37847;SDS011;23688;33.130;-117.188;2022-09-09T17:01:27;8.40;;;0.90;;
37847;SDS011;23688;33.130;-117.188;2022-09-09T17:04:02;4.65;;;1.13;;
37847;SDS011;23688;33.130;-117.188;2022-09-09T17:06:30;3.58;;;0.90;;
37847;SDS011;23688;33.130;-117.188;2022-09-09T17:09:04;4.88;;;1.27;;
37847;SDS011;23688;33.130;-117.188;2022-09-09T17:11:32;6.88;;;0.90;;
37847;SDS011;23688;33.130;-117.188;2022-09-09T17:13:58;2.55;;;1.20;;
37847;SDS011;23688;33.130;-117.188;2022-09-09T17:16:26;7.07;;;1.67;;
37847;SDS011;23688;33.130;-117.188;2022-09-09T17:18:55;9.07;;;1.58;;
37847;SDS011;23688;33.130;-117.188;2022-09-09T17:21:24;7.03;;;1.55;;
37847;SDS011;23688;33.130;-117.188;2022-09-09T17:23:52;4.25;;;0.95;;